Time;durP1;ratioP1;P1;durP2;ratioP2;P2;SDS_P1;SDS_P2;PMS_P1;PMS_P2;Temp;Humidity;BMP_temperature;BMP_pressure;BME280_temperature;BME280_humidity;BME280_pressure;Samples;Min_cycle;Max_cycle;Signal;HPM_P1;HPM_P2
2022/03/08 00:00:57;;;;;;;41.75;21.70;;;;;;;0.75;44.58;100334.75;7684007;32;39929;-70
2022/03/08 00:05:13;;;;;;;39.75;20.35;;;;;;;0.91;43.96;100333.66;7684630;32;37677;-70
2022/03/08 00:09:30;;;;;;;38.22;20.25;;;;;;;0.56;43.93;100334.41;7691563;32;37288;-70
2022/03/08 00:13:46;;;;;;;40.08;20.80;;;;;;;0.54;44.45;100330.25;7711704;32;39568;-70
2022/03/08 00:18:02;;;;;;;34.85;20.62;;;;;;;0.74;43.38;100320.53;7711811;32;39908;-71
2022/03/08 00:22:18;;;;;;;40.75;20.73;;;;;;;0.72;43.98;100321.72;7711627;32;38771;-70
2022/03/08 00:26:34;;;;;;;36.17;19.62;;;;;;;0.53;44.23;100324.03;7700607;32;38031;-70
2022/03/08 00:30:50;;;;;;;40.28;20.45;;;;;;;0.72;44.34;100321.72;7695994;32;40118;-70
2022/03/08 00:35:07;;;;;;;41.83;20.05;;;;;;;1.00;43.61;100318.22;7711536;32;40977;-70
2022/03/08 00:39:24;;;;;;;39.20;19.98;;;;;;;0.66;44.86;100327.88;7711332;32;38717;-70
2022/03/08 00:43:40;;;;;;;37.17;19.50;;;;;;;0.78;44.76;100322.78;7710330;32;37978;-70
2022/03/08 00:47:56;;;;;;;39.22;20.52;;;;;;;0.89;44.61;100327.66;7711537;32;39319;-70
2022/03/08 00:52:12;;;;;;;36.00;19.52;;;;;;;0.78;44.65;100322.78;7696467;32;40767;-70
2022/03/08 00:56:28;;;;;;;42.88;20.98;;;;;;;0.79;44.92;100317.25;7688361;32;38009;-70
2022/03/08 01:00:44;;;;;;;36.10;19.02;;;;;;;0.73;44.59;100312.66;7684641;32;38159;-70
2022/03/08 01:05:00;;;;;;;33.80;18.95;;;;;;;0.73;44.63;100297.38;7684644;32;39302;-70
2022/03/08 01:09:16;;;;;;;34.42;18.23;;;;;;;0.75;44.21;100311.44;7684380;32;39983;-70
2022/03/08 01:13:33;;;;;;;38.75;17.05;;;;;;;0.81;44.08;100306.31;7684387;32;38004;-70
2022/03/08 01:17:49;;;;;;;33.85;18.12;;;;;;;0.68;43.99;100310.56;7684536;32;37918;-70
2022/03/08 01:22:05;;;;;;;30.90;16.17;;;;;;;0.66;44.09;100317.16;7697597;32;39150;-70
2022/03/08 01:26:21;;;;;;;29.40;16.33;;;;;;;0.61;44.47;100316.91;7695060;32;40589;-70
2022/03/08 01:30:37;;;;;;;27.58;14.87;;;;;;;0.69;44.16;100312.22;7706123;32;38561;-70
2022/03/08 01:34:53;;;;;;;31.60;16.62;;;;;;;0.80;43.70;100304.66;7710891;32;37772;-70
2022/03/08 01:39:10;;;;;;;25.55;14.60;;;;;;;0.54;44.14;100314.16;7710758;32;40106;-70
2022/03/08 01:43:26;;;;;;;30.02;15.90;;;;;;;0.44;44.49;100314.47;7710615;32;40074;-70
2022/03/08 01:47:42;;;;;;;32.35;16.65;;;;;;;0.31;44.50;100315.19;7710524;32;38736;-70
2022/03/08 01:51:59;;;;;;;28.23;15.65;;;;;;;0.57;44.04;100308.41;7695644;32;37314;-70
2022/03/08 01:56:15;;;;;;;29.70;14.95;;;;;;;0.61;43.70;100307.00;7697417;32;39005;-70
2022/03/08 02:00:32;;;;;;;27.30;15.13;;;;;;;0.03;44.84;100306.22;7710364;32;39641;-70
2022/03/08 02:04:49;;;;;;;25.70;13.90;;;;;;;-0.04;45.20;100306.97;7710296;32;37906;-70
2022/03/08 02:09:05;;;;;;;28.38;15.27;;;;;;;-0.01;45.03;100306.59;7709150;32;37153;-70
2022/03/08 02:13:24;;;;;;;26.83;14.87;;;;;;;0.13;44.70;100296.84;7709032;32;40005;-69
2022/03/08 02:17:40;;;;;;;30.77;15.13;;;;;;;-0.13;45.42;100294.72;7710274;32;39918;-70
2022/03/08 02:21:56;;;;;;;28.48;15.82;;;;;;;-0.12;45.37;100293.72;7705928;32;37984;-70
2022/03/08 02:26:12;;;;;;;25.50;15.65;;;;;;;0.15;44.74;100299.34;7698150;32;37587;-70
2022/03/08 02:30:28;;;;;;;28.48;14.82;;;;;;;-0.09;45.20;100298.69;7700605;32;40149;-70
2022/03/08 02:34:44;;;;;;;28.70;14.65;;;;;;;0.17;44.60;100299.97;7688469;32;39869;-70
2022/03/08 02:39:00;;;;;;;25.92;13.68;;;;;;;-0.17;45.20;100293.47;7695501;32;38010;-70
2022/03/08 02:43:17;;;;;;;23.70;14.65;;;;;;;-0.01;44.76;100289.69;7687471;32;37325;-69
2022/03/08 02:47:33;;;;;;;24.48;14.38;;;;;;;-0.14;44.98;100294.91;7686244;32;39142;-70
2022/03/08 02:51:49;;;;;;;32.05;14.98;;;;;;;0.13;44.09;100296.03;7698819;32;40584;-70
2022/03/08 02:56:05;;;;;;;30.62;14.52;;;;;;;-0.29;44.98;100305.69;7698611;32;37637;-70
2022/03/08 03:00:23;;;;;;;23.95;14.05;;;;;;;-0.09;44.59;100309.41;7686109;32;38109;-70
2022/03/08 03:04:39;;;;;;;26.42;15.30;;;;;;;-0.34;45.20;100300.88;7686155;32;39505;-70
2022/03/08 03:08:55;;;;;;;27.45;15.23;;;;;;;-0.64;46.13;100300.06;7685816;32;41153;-70
2022/03/08 03:13:11;;;;;;;22.98;14.00;;;;;;;-0.43;45.80;100302.84;7685862;32;39060;-70
2022/03/08 03:17:27;;;;;;;29.27;14.85;;;;;;;-0.48;45.95;100304.44;7685882;32;36947;-70
2022/03/08 03:21:43;;;;;;;25.23;13.88;;;;;;;-0.59;46.19;100305.72;7691705;32;39814;-70
2022/03/08 03:25:59;;;;;;;25.92;13.88;;;;;;;-0.43;45.95;100315.37;7699245;32;39636;-70
2022/03/08 03:30:18;;;;;;;23.83;15.45;;;;;;;-0.81;47.45;100321.72;7712362;32;38790;-69
2022/03/08 03:34:34;;;;;;;29.10;15.52;;;;;;;-0.87;47.55;100321.59;7712394;32;37310;-70
2022/03/08 03:38:50;;;;;;;21.85;14.57;;;;;;;-0.62;47.20;100323.00;7692675;32;40086;-70
2022/03/08 03:43:06;;;;;;;25.30;14.57;;;;;;;-0.65;47.17;100315.31;7685461;32;40886;-70
2022/03/08 03:47:23;;;;;;;24.05;14.98;;;;;;;-0.61;47.11;100313.94;7686057;32;38236;-70
2022/03/08 03:51:39;;;;;;;24.98;14.05;;;;;;;-0.70;47.26;100319.59;7696635;32;38256;-70
2022/03/08 03:55:55;;;;;;;25.90;14.05;;;;;;;-0.51;46.73;100321.69;7711833;32;38989;-69
2022/03/08 04:00:14;;;;;;;25.37;14.70;;;;;;;-0.71;47.36;100316.06;7712093;32;39922;-72
2022/03/08 04:04:30;;;;;;;26.70;14.68;;;;;;;-0.65;47.50;100319.88;7711993;32;37773;-70
2022/03/08 04:08:46;;;;;;;28.85;15.45;;;;;;;-0.88;48.05;100318.09;7711970;32;38017;-70
2022/03/08 04:13:03;;;;;;;24.58;14.45;;;;;;;-0.88;48.21;100315.44;7711891;32;40164;-69
2022/03/08 04:17:19;;;;;;;29.85;15.48;;;;;;;-0.77;47.95;100317.63;7711786;32;39789;-69
2022/03/08 04:21:35;;;;;;;29.65;14.65;;;;;;;-0.96;48.23;100312.84;7700457;32;38688;-69
2022/03/08 04:25:51;;;;;;;25.52;14.45;;;;;;;-0.73;47.66;100318.09;7685191;32;37934;-69
2022/03/08 04:30:09;;;;;;;26.73;14.90;;;;;;;-0.86;47.81;100316.06;7685083;32;40177;-69
2022/03/08 04:34:25;;;;;;;25.65;14.10;;;;;;;-1.09;48.45;100312.63;7684867;32;40167;-69
2022/03/08 04:38:42;;;;;;;28.10;15.25;;;;;;;-0.86;48.04;100312.53;7684967;32;37997;-71
2022/03/08 04:42:58;;;;;;;28.17;15.10;;;;;;;-0.93;48.25;100304.44;7684825;32;37223;-69
2022/03/08 04:47:14;;;;;;;27.52;15.70;;;;;;;-1.25;49.01;100306.44;7684752;32;39188;-72
2022/03/08 04:51:30;;;;;;;30.00;15.10;;;;;;;-0.70;47.68;100298.16;7694024;32;40716;-71
2022/03/08 04:55:46;;;;;;;25.65;15.23;;;;;;;-0.82;48.06;100301.28;7711043;32;37775;-69
2022/03/08 05:00:06;;;;;;;26.80;15.63;;;;;;;-0.93;48.25;100312.47;7711407;32;37200;-69
2022/03/08 05:04:22;;;;;;;25.77;14.65;;;;;;;-0.92;48.39;100302.59;7710413;32;38837;-71
2022/03/08 05:08:39;;;;;;;28.02;15.40;;;;;;;-0.86;48.28;100293.81;7711027;32;39915;-71
2022/03/08 05:12:55;;;;;;;25.27;14.70;;;;;;;-0.90;48.11;100295.19;7710797;32;38649;-71
2022/03/08 05:17:11;;;;;;;26.23;15.23;;;;;;;-1.02;48.48;100300.16;7711015;32;37438;-71
2022/03/08 05:21:27;;;;;;;27.70;16.80;;;;;;;-1.01;48.88;100302.66;7701073;32;40446;-69
2022/03/08 05:25:43;;;;;;;27.30;15.45;;;;;;;-1.17;49.43;100310.88;7684363;32;40288;-68
2022/03/08 05:29:59;;;;;;;25.80;15.00;;;;;;;-1.13;49.37;100301.47;7684426;32;38536;-71
2022/03/08 05:34:15;;;;;;;25.80;15.00;;;;;;;-0.93;48.97;100304.44;7684358;32;36879;-71
2022/03/08 05:38:31;;;;;;;30.88;15.13;;;;;;;-0.83;49.16;100301.47;7684201;32;39008;-70
2022/03/08 05:42:47;;;;;;;27.65;14.75;;;;;;;-1.10;49.92;100300.25;7684151;32;39749;-70
2022/03/08 05:47:04;;;;;;;28.90;16.52;;;;;;;-0.86;49.39;100312.53;7683833;32;38778;-69
2022/03/08 05:51:20;;;;;;;26.33;15.65;;;;;;;-1.11;49.96;100318.16;7692296;32;37278;-69
2022/03/08 05:55:36;;;;;;;31.02;15.95;;;;;;;-1.17;50.29;100326.94;7710165;32;40093;-70
2022/03/08 05:59:52;;;;;;;24.20;14.80;;;;;;;-1.12;50.51;100323.69;7710337;32;40810;-70
2022/03/08 06:04:08;;;;;;;30.30;15.95;;;;;;;-1.04;50.41;100339.69;7709299;32;38747;-69
2022/03/08 06:08:24;;;;;;;28.40;16.08;;;;;;;-1.07;50.69;100327.50;7697494;32;37268;-70
2022/03/08 06:12:41;;;;;;;33.75;16.83;;;;;;;-1.29;52.26;100339.06;7682327;32;39490;-70
2022/03/08 06:16:58;;;;;;;36.10;19.48;;;;;;;-0.97;52.07;100329.91;7683368;32;41038;-69
2022/03/08 06:21:14;;;;;;;37.42;17.70;;;;;;;-0.97;52.17;100333.44;7692202;32;37973;-69
2022/03/08 06:25:30;;;;;;;27.45;16.15;;;;;;;-0.86;52.06;100332.13;7697632;32;37113;-70
2022/03/08 06:29:47;;;;;;;31.65;17.27;;;;;;;-0.60;51.58;100336.22;7700683;32;40039;-70
2022/03/08 06:34:03;;;;;;;30.33;18.02;;;;;;;-0.45;51.19;100339.72;7700622;32;39899;-71
2022/03/08 06:38:20;;;;;;;29.12;17.23;;;;;;;-0.08;50.07;100343.25;7701272;32;38185;-70
2022/03/08 06:42:36;;;;;;;33.63;17.92;;;;;;;-0.06;50.28;100343.88;7684603;32;38144;-70
2022/03/08 06:46:52;;;;;;;29.70;16.60;;;;;;;-0.15;50.83;100350.38;7682755;32;40067;-71
2022/03/08 06:51:09;;;;;;;37.13;17.98;;;;;;;0.01;50.82;100343.94;7682318;32;40870;-70
2022/03/08 06:55:26;;;;;;;30.55;18.20;;;;;;;0.72;53.17;100341.34;7690985;32;38024;-70
2022/03/08 06:59:42;;;;;;;32.45;19.30;;;;;;;0.74;51.43;100341.16;7696066;32;36962;-70
2022/03/08 07:03:58;;;;;;;32.20;18.27;;;;;;;0.82;49.45;100342.88;7696998;32;40044;-70
2022/03/08 07:08:14;;;;;;;39.88;18.98;;;;;;;1.01;49.17;100350.25;7683012;32;40108;-70
2022/03/08 07:12:30;;;;;;;29.77;18.33;;;;;;;1.00;49.58;100353.13;7697124;32;37998;-70
2022/03/08 07:16:47;;;;;;;29.30;19.02;;;;;;;1.44;48.45;100346.59;7699201;32;38058;-70
2022/03/08 07:21:04;;;;;;;34.30;19.35;;;;;;;1.82;47.59;100349.66;7706288;32;39831;-71
2022/03/08 07:25:21;;;;;;;31.98;18.27;;;;;;;1.85;47.46;100343.91;7704671;32;39604;-70
2022/03/08 07:29:37;;;;;;;28.02;17.62;;;;;;;1.83;47.35;100354.03;7691940;32;37610;-70
2022/03/08 07:33:53;;;;;;;32.75;18.92;;;;;;;2.21;46.42;100347.34;7698836;32;37040;-69
2022/03/08 07:38:09;;;;;;;31.17;17.50;;;;;;;2.49;46.01;100339.09;7698879;32;39850;-69
2022/03/08 07:42:27;;;;;;;30.88;17.98;;;;;;;2.84;45.33;100335.37;7694374;32;40620;-70
2022/03/08 07:46:43;;;;;;;31.52;18.40;;;;;;;2.91;45.41;100341.59;7685327;32;38006;-69
2022/03/08 07:51:00;;;;;;;29.80;16.23;;;;;;;2.98;44.41;100340.56;7700698;32;37740;-70
2022/03/08 07:55:17;;;;;;;33.72;18.65;;;;;;;3.30;43.73;100340.72;7693607;32;39576;-69
2022/03/08 07:59:33;;;;;;;30.30;18.02;;;;;;;2.97;43.95;100338.91;7694051;32;39870;-68
2022/03/08 08:03:49;;;;;;;29.52;16.23;;;;;;;3.17;43.03;100340.75;7684889;32;38695;-68
2022/03/08 08:08:08;;;;;;;33.22;18.00;;;;;;;3.94;42.14;100330.97;7688074;32;37416;-71
2022/03/08 08:12:24;;;;;;;33.58;18.08;;;;;;;3.98;41.71;100346.72;7701081;32;39307;-70
2022/03/08 08:16:41;;;;;;;36.70;20.58;;;;;;;4.13;41.89;100342.69;7710408;32;39916;-70
2022/03/08 08:20:59;;;;;;;34.70;18.75;;;;;;;4.47;42.42;100334.41;7705682;32;39157;-68
2022/03/08 08:25:16;;;;;;;34.88;18.77;;;;;;;4.84;42.37;100337.25;7696094;32;37271;-69
2022/03/08 08:29:32;;;;;;;37.13;20.55;;;;;;;4.77;42.15;100331.06;7689846;32;39339;-69
2022/03/08 08:33:48;;;;;;;35.80;20.45;;;;;;;4.76;43.36;100340.22;7694438;32;40011;-68
2022/03/08 08:38:05;;;;;;;30.42;18.85;;;;;;;4.08;43.80;100347.09;7701900;32;38052;-69
2022/03/08 08:42:21;;;;;;;35.00;20.42;;;;;;;4.17;43.41;100344.97;7705726;32;37389;-68
2022/03/08 08:46:38;;;;;;;34.50;20.55;;;;;;;4.13;45.04;100340.00;7693640;32;40117;-68
2022/03/08 08:50:54;;;;;;;33.20;17.27;;;;;;;4.30;43.21;100336.81;7703965;32;40877;-70
2022/03/08 08:55:11;;;;;;;34.50;17.87;;;;;;;4.65;43.25;100330.94;7699423;32;38661;-71
2022/03/08 08:59:27;;;;;;;29.35;18.17;;;;;;;4.89;42.72;100329.31;7690908;32;37911;-69
2022/03/08 09:03:44;;;;;;;30.45;18.37;;;;;;;5.20;41.85;100322.97;7695963;32;40122;-69
2022/03/08 09:08:00;;;;;;;32.45;16.90;;;;;;;5.54;39.77;100312.66;7696597;32;39910;-68
2022/03/08 09:12:16;;;;;;;33.72;18.10;;;;;;;5.71;39.60;100306.59;7693003;32;38171;-69
2022/03/08 09:16:32;;;;;;;31.70;18.52;;;;;;;5.80;39.27;100310.69;7698032;32;37439;-69
2022/03/08 09:20:49;;;;;;;36.22;18.80;;;;;;;6.22;39.47;100309.94;7691625;32;40080;-70
2022/03/08 09:25:07;;;;;;;40.35;21.08;;;;;;;6.45;40.45;100299.19;7710841;32;39977;-72
2022/03/08 09:29:23;;;;;;;32.25;17.83;;;;;;;6.83;38.32;100292.53;7697818;32;37876;-71
2022/03/08 09:33:40;;;;;;;31.73;16.87;;;;;;;7.25;35.93;100294.28;7709365;32;36900;-72
2022/03/08 09:37:56;;;;;;;24.77;13.05;;;;;;;7.31;34.86;100294.16;7694908;32;39997;-71
2022/03/08 09:42:12;;;;;;;22.35;14.07;;;;;;;7.32;33.64;100294.97;7696572;32;40818;-72
2022/03/08 09:46:28;;;;;;;20.37;12.82;;;;;;;7.33;34.08;100293.94;7687169;32;38047;-72
2022/03/08 09:50:44;;;;;;;22.27;12.52;;;;;;;7.66;33.50;100287.00;7695694;32;37353;-71
2022/03/08 09:55:01;;;;;;;22.95;12.82;;;;;;;7.97;33.13;100284.87;7707500;32;39582;-71
2022/03/08 09:59:18;;;;;;;19.48;11.75;;;;;;;8.15;32.15;100281.97;7704818;32;39710;-71
2022/03/08 10:03:39;;;;;;;22.75;12.23;;;;;;;8.28;32.22;100278.97;7683632;32;38717;-72
2022/03/08 10:08:14;;;;;;;25.20;12.43;;;;;;;7.18;33.43;100280.03;7690742;32;38025;-72
2022/03/08 10:12:30;;;;;;;20.88;11.55;;;;;;;7.51;32.99;100274.75;7706186;32;40115;-72
2022/03/08 10:16:49;;;;;;;22.83;12.07;;;;;;;8.41;31.82;100277.00;7696183;32;40743;-70
2022/03/08 10:21:23;;;;;;;22.90;12.27;;;;;;;8.46;31.71;100277.13;7710006;32;37648;-71
2022/03/08 10:25:41;;;;;;;18.75;9.57;;;;;;;8.99;30.66;100278.50;7690717;32;37951;-72
2022/03/08 10:29:59;;;;;;;18.87;8.95;;;;;;;9.46;29.69;100273.69;7707387;32;39060;-73
2022/03/08 10:34:17;;;;;;;18.23;8.13;;;;;;;9.84;27.43;100269.25;7686678;32;39019;-72
2022/03/08 10:38:33;;;;;;;17.83;8.88;;;;;;;10.11;26.79;100270.09;7687860;32;37958;-73
2022/03/08 10:43:00;;;;;;;17.17;8.82;;;;;;;10.78;25.13;100256.25;7695743;32;37302;-73
2022/03/08 10:47:17;;;;;;;15.93;8.43;;;;;;;10.87;24.94;100255.50;7688171;32;40036;-73
2022/03/08 10:51:33;;;;;;;14.90;8.40;;;;;;;11.30;25.27;100254.66;7685949;32;39767;-71
2022/03/08 10:55:50;;;;;;;13.57;8.23;;;;;;;11.07;24.95;100248.53;7686049;32;37678;-73
2022/03/08 11:00:11;;;;;;;13.57;7.70;;;;;;;11.58;24.30;100248.78;7686147;32;37437;-72
2022/03/08 11:04:27;;;;;;;13.35;7.70;;;;;;;11.80;24.27;100247.78;7686209;32;39785;-72
2022/03/08 11:08:43;;;;;;;15.90;8.43;;;;;;;12.08;22.89;100245.69;7685843;32;40085;-71
2022/03/08 11:13:00;;;;;;;15.52;7.47;;;;;;;10.95;24.54;100256.09;7687229;32;37660;-72
2022/03/08 11:17:16;;;;;;;12.68;7.20;;;;;;;10.39;25.27;100260.03;7698461;32;37177;-72
2022/03/08 11:21:34;;;;;;;14.15;7.97;;;;;;;10.88;25.71;100251.69;7712720;32;39365;-71
2022/03/08 11:25:50;;;;;;;14.70;8.68;;;;;;;12.00;22.71;100242.38;7712179;32;39838;-72
2022/03/08 11:30:09;;;;;;;15.38;7.72;;;;;;;10.69;24.45;100236.81;7707923;32;38927;-72
2022/03/08 11:34:40;;;;;;;17.73;9.00;;;;;;;11.44;23.48;100225.78;7711222;32;36913;-71
2022/03/08 11:39:15;;;;;;;18.20;7.75;;;;;;;11.93;23.27;100225.41;7711820;32;40108;-72
2022/03/08 11:43:45;;;;;;;15.40;7.97;;;;;;;12.43;22.37;100214.81;7707328;32;40846;-71
2022/03/08 11:48:04;;;;;;;16.20;8.77;;;;;;;13.19;21.48;100210.28;7683735;32;37978;-71
2022/03/08 11:52:35;;;;;;;19.65;8.13;;;;;;;12.40;22.18;100216.19;7684741;32;36872;-73
2022/03/08 11:56:52;;;;;;;15.85;8.18;;;;;;;11.90;23.55;100200.50;7684208;32;39157;-71
2022/03/08 12:01:20;;;;;;;15.45;8.23;;;;;;;11.12;23.92;100209.53;7683216;32;40824;-72
2022/03/08 12:05:47;;;;;;;14.40;7.93;;;;;;;11.55;23.54;100205.63;7689511;32;37583;-72
2022/03/08 12:10:26;;;;;;;16.73;7.97;;;;;;;11.51;24.47;100199.06;7683488;32;36928;-72
2022/03/08 12:15:03;;;;;;;13.75;6.97;;;;;;;11.97;22.97;100193.75;7682392;32;39506;-71
2022/03/08 12:19:33;;;;;;;12.93;7.53;;;;;;;12.12;22.47;100195.66;7683760;32;39699;-73
2022/03/08 12:23:55;;;;;;;11.20;7.03;;;;;;;12.35;23.03;100196.22;7682026;32;38106;-71
2022/03/08 12:28:11;;;;;;;12.95;6.30;;;;;;;12.55;21.79;100187.19;7682288;32;36353;-72
2022/03/08 12:32:29;;;;;;;13.10;6.97;;;;;;;11.71;22.33;100176.47;7684294;32;40526;-72
2022/03/08 12:37:05;;;;;;;11.50;6.05;;;;;;;11.30;22.23;100180.94;7684792;32;39248;-73
2022/03/08 12:41:27;;;;;;;9.93;5.62;;;;;;;12.09;21.46;100181.72;7683602;32;38253;-72
2022/03/08 12:45:46;;;;;;;10.52;5.95;;;;;;;12.13;21.27;100177.38;7681494;32;35954;-73
2022/03/08 12:50:07;;;;;;;11.90;5.55;;;;;;;12.57;20.01;100160.38;7683632;32;40153;-72
2022/03/08 12:54:24;;;;;;;11.12;5.32;;;;;;;12.79;19.14;100157.31;7681389;32;39842;-74
2022/03/08 12:58:41;;;;;;;11.12;5.35;;;;;;;12.43;19.86;100145.63;7682429;32;38715;-73
2022/03/08 13:02:57;;;;;;;8.32;4.75;;;;;;;11.23;20.32;100154.75;7683140;32;37729;-73
2022/03/08 13:07:18;;;;;;;9.38;4.65;;;;;;;12.59;19.50;100141.78;7683013;32;40102;-73
2022/03/08 13:11:36;;;;;;;9.27;5.00;;;;;;;12.82;19.12;100142.28;7683604;32;39993;-73
2022/03/08 13:15:52;;;;;;;11.10;4.82;;;;;;;12.82;18.07;100145.03;7683002;32;37923;-71
2022/03/08 13:20:29;;;;;;;9.50;4.50;;;;;;;12.63;18.78;100140.12;7682763;32;37462;-71
2022/03/08 13:25:09;;;;;;;8.75;4.53;;;;;;;13.07;18.91;100135.87;7682592;32;39874;-71
2022/03/08 13:29:25;;;;;;;7.15;4.28;;;;;;;12.98;18.34;100127.44;7683069;32;39656;-72
2022/03/08 13:33:47;;;;;;;10.18;4.87;;;;;;;12.85;18.16;100128.03;7683908;32;37679;-71
2022/03/08 13:38:04;;;;;;;7.37;4.12;;;;;;;12.79;18.45;100135.44;7683999;32;35590;-72
2022/03/08 13:42:20;;;;;;;7.43;4.85;;;;;;;13.32;17.53;100127.59;7684364;32;39234;-72
2022/03/08 13:46:40;;;;;;;9.30;4.87;;;;;;;12.53;18.11;100130.03;7683332;32;40778;-71
2022/03/08 13:51:04;;;;;;;8.32;4.50;;;;;;;12.22;18.66;100131.97;7683747;32;40054;-71
2022/03/08 13:55:28;;;;;;;7.87;4.57;;;;;;;11.60;20.05;100131.91;7683621;32;38005;-71
2022/03/08 13:59:44;;;;;;;10.55;5.03;;;;;;;11.48;20.33;100128.59;7683621;32;39431;-72
2022/03/08 14:04:01;;;;;;;9.30;5.25;;;;;;;11.08;20.78;100130.12;7682287;32;40619;-72
2022/03/08 14:08:33;;;;;;;13.10;5.30;;;;;;;10.13;21.30;100125.44;7683065;32;38638;-71
2022/03/08 14:12:50;;;;;;;11.02;5.22;;;;;;;10.75;21.51;100123.97;7683658;32;37280;-71
2022/03/08 14:17:06;;;;;;;11.20;5.22;;;;;;;10.73;21.83;100109.78;7683055;32;39280;-72
2022/03/08 14:21:32;;;;;;;11.02;5.28;;;;;;;10.76;22.18;100100.25;7681838;32;40527;-72
2022/03/08 14:26:08;;;;;;;9.68;4.70;;;;;;;11.01;21.30;100099.53;7682717;32;37985;-72
2022/03/08 14:30:27;;;;;;;9.93;4.82;;;;;;;11.97;20.18;100097.28;7682984;32;36183;-72
2022/03/08 14:34:43;;;;;;;10.07;4.97;;;;;;;12.91;19.04;100099.56;7683088;32;39229;-71
2022/03/08 14:39:01;;;;;;;9.65;5.25;;;;;;;13.49;17.80;100091.63;7682574;32;40656;-72
2022/03/08 14:43:17;;;;;;;9.40;4.82;;;;;;;13.20;18.31;100104.38;7681495;32;38502;-72
2022/03/08 14:47:38;;;;;;;9.55;5.03;;;;;;;13.95;17.12;100097.84;7682569;32;36833;-71
2022/03/08 14:51:54;;;;;;;8.98;5.18;;;;;;;15.01;16.44;100088.84;7682539;32;39284;-72
2022/03/08 14:56:10;;;;;;;7.93;4.78;;;;;;;14.32;16.30;100088.22;7682690;32;40042;-71
2022/03/08 15:00:27;;;;;;;8.35;4.85;;;;;;;14.40;16.62;100082.91;7682030;32;38668;-72
2022/03/08 15:04:43;;;;;;;8.55;4.60;;;;;;;14.55;16.33;100086.59;7682222;32;36906;-72
2022/03/08 15:08:59;;;;;;;10.73;5.53;;;;;;;14.61;16.46;100090.97;7681862;32;39239;-74
2022/03/08 15:13:16;;;;;;;9.80;4.95;;;;;;;14.12;16.79;100090.03;7682179;32;39847;-72
2022/03/08 15:17:32;;;;;;;9.85;4.78;;;;;;;14.87;16.43;100077.75;7682007;32;38625;-74
2022/03/08 15:21:48;;;;;;;9.43;4.90;;;;;;;14.76;17.00;100070.75;7681782;32;37440;-74
2022/03/08 15:26:05;;;;;;;10.88;5.12;;;;;;;15.30;16.00;100079.69;7682034;32;40121;-74
2022/03/08 15:30:21;;;;;;;10.35;4.55;;;;;;;15.19;15.81;100066.09;7681489;32;40781;-74
2022/03/08 15:34:37;;;;;;;17.45;5.40;;;;;;;15.41;16.30;100078.41;7683733;32;38112;-74
2022/03/08 15:38:54;;;;;;;8.98;4.78;;;;;;;14.55;16.46;100079.19;7685609;32;36311;-73
2022/03/08 15:43:11;;;;;;;12.00;5.12;;;;;;;13.80;17.38;100087.84;7685218;32;40189;-74
2022/03/08 15:47:27;;;;;;;9.35;4.75;;;;;;;14.43;16.83;100087.00;7685415;32;39879;-73
2022/03/08 15:51:43;;;;;;;8.95;4.10;;;;;;;14.86;16.25;100078.84;7684867;32;38680;-73
2022/03/08 15:55:59;;;;;;;9.98;4.85;;;;;;;14.34;16.58;100080.50;7685609;32;37768;-73
2022/03/08 16:00:17;;;;;;;8.00;4.35;;;;;;;14.14;17.19;100076.84;7684924;32;39447;-73
2022/03/08 16:04:35;;;;;;;26.17;11.48;;;;;;;13.65;17.62;100099.72;7685112;32;40128;-73
2022/03/08 16:08:51;;;;;;;24.17;6.60;;;;;;;13.32;17.85;100096.66;7685170;32;38741;-74
2022/03/08 16:13:07;;;;;;;9.73;5.50;;;;;;;13.73;17.61;100093.66;7684667;32;37948;-73
2022/03/08 16:17:24;;;;;;;8.98;4.95;;;;;;;12.42;18.85;100103.81;7685359;32;39981;-72
2022/03/08 16:21:53;;;;;;;10.95;4.95;;;;;;;12.74;18.66;100106.16;7684700;32;39937;-73
2022/03/08 16:26:09;;;;;;;16.85;5.37;;;;;;;13.11;18.76;100104.13;7684913;32;38478;-74
2022/03/08 16:30:26;;;;;;;17.48;5.20;;;;;;;13.09;18.67;100112.63;7684714;32;37859;-73
2022/03/08 16:34:42;;;;;;;10.10;5.62;;;;;;;12.75;19.19;100121.50;7683208;32;39350;-74
2022/03/08 16:38:58;;;;;;;9.95;4.35;;;;;;;11.96;19.87;100129.25;7682249;32;40017;-73
2022/03/08 16:43:14;;;;;;;8.27;4.40;;;;;;;11.51;20.42;100128.06;7682079;32;36742;-73
2022/03/08 16:47:31;;;;;;;10.63;4.75;;;;;;;11.28;20.83;100118.47;7683334;32;37494;-74
2022/03/08 16:51:47;;;;;;;8.85;4.43;;;;;;;10.89;21.39;100124.31;7676926;32;225460;-74
2022/03/08 16:56:03;;;;;;;12.20;4.97;;;;;;;10.47;21.99;100139.63;7683877;32;41395;-74
2022/03/08 17:00:20;;;;;;;19.50;5.40;;;;;;;10.17;22.61;100137.47;7668052;32;37998;-73
2022/03/08 17:04:36;;;;;;;10.20;4.60;;;;;;;9.83;21.95;100150.50;7683812;32;37030;-73
2022/03/08 17:08:53;;;;;;;11.18;4.60;;;;;;;9.92;22.37;100157.16;7683334;32;40068;-73
2022/03/08 17:13:09;;;;;;;10.15;4.65;;;;;;;9.88;22.53;100175.06;7682037;32;40783;-74
2022/03/08 17:17:25;;;;;;;8.70;4.40;;;;;;;9.55;23.34;100174.19;7682287;32;38145;-73
2022/03/08 17:21:44;;;;;;;7.43;3.95;;;;;;;9.39;23.46;100176.72;7684694;32;37057;-73
2022/03/08 17:26:00;;;;;;;11.70;4.90;;;;;;;9.16;23.76;100179.75;7683168;32;39914;-73
2022/03/08 17:30:18;;;;;;;15.63;6.20;;;;;;;8.81;23.28;100187.16;7684636;32;40924;-74
2022/03/08 17:34:34;;;;;;;11.60;5.80;;;;;;;8.69;24.30;100185.59;7681280;32;38015;-73
2022/03/08 17:38:50;;;;;;;13.73;5.90;;;;;;;8.49;24.76;100184.25;7682225;32;37196;-73
2022/03/08 17:43:09;;;;;;;14.15;7.62;;;;;;;8.38;25.27;100188.66;7682068;32;39151;-74
2022/03/08 17:47:26;;;;;;;15.82;7.75;;;;;;;8.16;25.89;100195.88;7681337;32;39652;-73
2022/03/08 17:51:42;;;;;;;14.80;6.80;;;;;;;8.15;26.19;100194.25;7682836;32;37807;-73
2022/03/08 17:55:58;;;;;;;15.23;7.30;;;;;;;7.85;26.92;100198.09;7682723;32;37191;-73
2022/03/08 18:00:15;;;;;;;15.48;7.87;;;;;;;7.86;26.79;100197.84;7682367;32;40318;-73
2022/03/08 18:04:51;;;;;;;19.45;7.68;;;;;;;7.74;27.02;100199.75;7682630;32;40059;-73
2022/03/08 18:09:07;;;;;;;18.52;7.22;;;;;;;7.66;26.88;100208.31;7682715;32;37679;-73
2022/03/08 18:13:24;;;;;;;16.12;5.65;;;;;;;7.36;27.03;100213.94;7682758;32;38022;-73
2022/03/08 18:17:40;;;;;;;15.25;6.85;;;;;;;7.40;26.95;100220.53;7682942;32;39376;-73
2022/03/08 18:22:02;;;;;;;11.57;5.80;;;;;;;7.61;26.39;100216.34;7684127;32;40704;-73
2022/03/08 18:26:23;;;;;;;10.57;5.62;;;;;;;7.33;26.95;100215.28;7682380;32;38712;-73
2022/03/08 18:30:39;;;;;;;10.75;5.90;;;;;;;6.82;27.92;100233.13;7679344;32;37094;-73
2022/03/08 18:34:55;;;;;;;9.77;5.57;;;;;;;6.56;28.17;100230.63;7681924;32;40217;-73
2022/03/08 18:39:12;;;;;;;13.20;6.53;;;;;;;6.56;28.04;100235.25;7682158;32;39758;-73
2022/03/08 18:43:28;;;;;;;17.48;9.63;;;;;;;6.44;29.47;100239.81;7681800;32;38591;-72
2022/03/08 18:47:45;;;;;;;17.90;8.80;;;;;;;6.25;30.41;100237.19;7681726;32;37339;-73
2022/03/08 18:52:03;;;;;;;15.82;8.15;;;;;;;6.07;30.80;100243.50;7681407;32;39132;-73
2022/03/08 18:56:19;;;;;;;18.80;9.52;;;;;;;6.08;30.73;100255.16;7681809;32;40887;-73
2022/03/08 19:00:36;;;;;;;15.10;8.88;;;;;;;5.86;31.46;100255.62;7679943;32;37809;-75
2022/03/08 19:04:54;;;;;;;17.98;9.38;;;;;;;5.91;31.57;100260.34;7680225;32;36294;-73
2022/03/08 19:09:10;;;;;;;17.15;8.50;;;;;;;5.76;31.72;100249.94;7683949;32;39420;-72
2022/03/08 19:13:26;;;;;;;21.92;9.20;;;;;;;5.78;31.59;100253.25;7685836;32;40000;-73
2022/03/08 19:17:45;;;;;;;19.23;10.18;;;;;;;5.92;30.46;100260.13;7686172;32;37922;-73
2022/03/08 19:22:01;;;;;;;18.15;9.35;;;;;;;5.19;32.23;100267.28;7685999;32;37997;-74
2022/03/08 19:26:17;;;;;;;25.05;10.35;;;;;;;5.38;32.34;100270.81;7683932;32;39272;-73
2022/03/08 19:30:33;;;;;;;16.87;9.25;;;;;;;5.26;33.41;100273.44;7681622;32;41297;-73
2022/03/08 19:34:49;;;;;;;16.87;9.15;;;;;;;5.23;33.36;100268.47;7683519;32;38023;-72
2022/03/08 19:39:06;;;;;;;16.35;8.50;;;;;;;5.22;32.96;100256.00;7683816;32;36938;-73
2022/03/08 19:43:22;;;;;;;17.90;9.98;;;;;;;5.14;33.02;100259.03;7682350;32;39289;-73